Time;durP1;ratioP1;P1;durP2;ratioP2;P2;SDS_P1;SDS_P2;PMS_P1;PMS_P2;Temp;Humidity;BMP_temperature;BMP_pressure;BME280_temperature;BME280_humidity;BME280_pressure;Samples;Min_cycle;Max_cycle;Signal;HPM_P1;HPM_P2
2023/03/29 00:02:01;;;;;;;3.83;2.27;;;;;;;6.21;81.45;100871.25;4985012;28;20193;-74
2023/03/29 00:04:27;;;;;;;2.83;2.00;;;;;;;6.17;81.46;100869.34;4985203;28;20195;-73
2023/03/29 00:06:54;;;;;;;3.17;2.20;;;;;;;6.16;81.64;100858.78;4981024;28;20218;-73
2023/03/29 00:09:21;;;;;;;3.03;2.20;;;;;;;6.17;81.94;100865.81;4987349;28;20467;-74
2023/03/29 00:11:50;;;;;;;4.80;2.47;;;;;;;6.17;81.86;100861.47;4982967;28;20239;-74
2023/03/29 00:14:16;;;;;;;2.13;1.80;;;;;;;6.19;82.05;100859.78;4982196;28;20220;-74
2023/03/29 00:16:45;;;;;;;3.47;2.20;;;;;;;6.17;81.44;100853.56;4985337;28;20231;-74
2023/03/29 00:19:12;;;;;;;4.30;2.10;;;;;;;6.20;81.25;100860.69;4987538;28;21464;-74
2023/03/29 00:21:38;;;;;;;4.30;2.13;;;;;;;6.18;81.56;100850.09;4989909;28;20208;-73
2023/03/29 00:24:05;;;;;;;3.23;2.03;;;;;;;6.16;81.43;100850.88;4988343;28;20265;-73
2023/03/29 00:26:31;;;;;;;4.30;2.57;;;;;;;6.16;81.63;100854.41;4990628;28;20744;-73
2023/03/29 00:28:58;;;;;;;3.07;2.43;;;;;;;6.16;81.90;100850.88;4990404;28;20236;-73
2023/03/29 00:31:24;;;;;;;3.97;2.43;;;;;;;6.16;82.53;100854.41;4989128;28;20204;-73
2023/03/29 00:33:51;;;;;;;3.97;2.30;;;;;;;6.10;82.72;100832.25;4991053;28;20249;-73
2023/03/29 00:36:17;;;;;;;3.73;2.20;;;;;;;6.13;83.11;100841.16;4991562;28;20309;-73
2023/03/29 00:38:44;;;;;;;2.63;2.03;;;;;;;6.06;82.87;100825.97;5002032;28;20695;-74
2023/03/29 00:41:10;;;;;;;3.63;2.10;;;;;;;6.05;82.78;100823.28;4986694;28;20210;-73
2023/03/29 00:44:00;;;;;;;2.90;1.93;;;;;;;6.09;82.73;100838.34;4989783;28;20683;-74
2023/03/29 00:46:29;;;;;;;4.23;1.97;;;;;;;6.14;81.94;100821.00;4988609;28;20226;-74
2023/03/29 00:49:01;;;;;;;2.00;1.80;;;;;;;6.16;82.21;100821.97;4988488;28;20203;-74
2023/03/29 00:51:31;;;;;;;4.23;2.10;;;;;;;6.13;82.25;100825.38;4988796;28;20202;-74
2023/03/29 00:54:00;;;;;;;2.30;1.90;;;;;;;6.14;82.08;100821.91;4990510;28;20266;-73
2023/03/29 00:56:33;;;;;;;2.63;1.83;;;;;;;6.12;81.62;100823.56;4986252;28;20256;-73
2023/03/29 00:59:12;;;;;;;3.23;2.03;;;;;;;6.13;81.88;100825.38;4989771;28;20205;-74
2023/03/29 01:01:58;;;;;;;5.57;2.30;;;;;;;6.17;81.68;100821.13;4987914;28;20202;-73
2023/03/29 01:04:31;;;;;;;3.37;2.40;;;;;;;6.17;82.11;100803.59;4990432;28;20672;-74
2023/03/29 01:07:20;;;;;;;4.07;2.50;;;;;;;6.18;82.12;100797.50;4988609;28;20203;-73
2023/03/29 01:09:52;;;;;;;5.50;2.67;;;;;;;6.25;82.29;100796.91;4984975;28;20287;-74
2023/03/29 01:12:28;;;;;;;4.47;2.47;;;;;;;6.22;82.60;100791.53;4989679;28;20195;-73
2023/03/29 01:15:03;;;;;;;5.33;2.30;;;;;;;6.19;83.23;100793.16;4980057;28;20254;-74
2023/03/29 01:17:30;;;;;;;3.77;2.50;;;;;;;6.17;83.94;100794.81;4985042;28;20203;-74
2023/03/29 01:20:07;;;;;;;4.47;2.53;;;;;;;6.21;82.95;100788.84;4989289;28;20199;-73
2023/03/29 01:22:56;;;;;;;2.90;2.23;;;;;;;6.12;83.21;100792.03;4987296;28;20256;-71
2023/03/29 01:25:46;;;;;;;4.70;2.33;;;;;;;6.10;83.67;100787.56;4988700;28;20319;-72
2023/03/29 01:28:28;;;;;;;4.63;2.50;;;;;;;6.08;84.44;100786.59;4988949;28;20207;-73
2023/03/29 01:31:09;;;;;;;4.97;2.73;;;;;;;6.04;84.11;100782.97;4986245;28;20742;-73
2023/03/29 01:33:41;;;;;;;4.77;2.20;;;;;;;6.04;84.54;100782.06;4989243;28;20215;-73
2023/03/29 01:36:25;;;;;;;5.20;2.27;;;;;;;6.03;84.72;100780.28;4990781;28;20224;-74
2023/03/29 01:39:03;;;;;;;5.00;2.43;;;;;;;6.02;84.78;100775.84;4990975;28;20230;-74
2023/03/29 01:41:57;;;;;;;3.63;2.40;;;;;;;6.01;84.95;100768.81;4987111;28;20214;-74
2023/03/29 01:44:33;;;;;;;4.57;2.30;;;;;;;6.02;85.25;100771.50;4987016;28;20234;-73
2023/03/29 01:47:28;;;;;;;5.17;2.17;;;;;;;6.16;84.08;100750.97;4990088;28;20235;-73
2023/03/29 01:50:12;;;;;;;5.63;2.60;;;;;;;6.16;83.25;100759.75;4992610;28;20421;-73
2023/03/29 01:52:45;;;;;;;2.87;2.10;;;;;;;6.07;84.36;100758.50;4981458;28;20641;-73
2023/03/29 01:55:17;;;;;;;4.57;2.50;;;;;;;6.08;84.77;100766.47;4990550;28;20232;-73
2023/03/29 01:57:46;;;;;;;3.73;2.20;;;;;;;6.12;84.03;100762.22;4983997;28;20211;-74
2023/03/29 02:00:19;;;;;;;2.77;2.40;;;;;;;6.05;84.38;100753.19;4983282;28;20237;-73
2023/03/29 02:02:47;;;;;;;3.23;2.50;;;;;;;6.06;85.00;100747.09;4983561;28;20207;-73
2023/03/29 02:05:15;;;;;;;3.00;2.37;;;;;;;6.02;85.05;100750.47;4983566;28;20215;-73
2023/03/29 02:07:44;;;;;;;3.70;2.27;;;;;;;6.03;85.11;100764.50;4993963;28;20206;-74
2023/03/29 02:10:13;;;;;;;4.23;2.37;;;;;;;6.02;85.65;100753.09;4988109;28;20227;-73
2023/03/29 02:12:40;;;;;;;2.70;2.10;;;;;;;6.02;85.41;100749.56;4984918;28;20667;-73
2023/03/29 02:15:14;;;;;;;3.43;2.50;;;;;;;6.04;85.29;100747.88;4993498;28;20224;-74
2023/03/29 02:17:42;;;;;;;4.53;2.43;;;;;;;6.11;85.17;100739.38;4998325;28;20215;-74
2023/03/29 02:20:19;;;;;;;6.47;2.47;;;;;;;6.07;85.51;100733.13;4992718;28;20253;-73
2023/03/29 02:22:49;;;;;;;4.60;2.50;;;;;;;6.21;86.16;100728.34;4984925;28;20262;-72
2023/03/29 02:25:16;;;;;;;5.53;2.80;;;;;;;6.21;85.48;100718.72;4985894;28;20219;-73
2023/03/29 02:27:43;;;;;;;6.27;2.93;;;;;;;6.31;85.72;100729.56;4986477;28;20205;-73
2023/03/29 02:30:12;;;;;;;6.30;2.53;;;;;;;6.22;85.41;100730.13;4989567;28;20200;-73
2023/03/29 02:32:50;;;;;;;3.63;2.80;;;;;;;6.06;86.00;100726.06;4988043;28;20212;-73
2023/03/29 02:35:26;;;;;;;5.97;2.70;;;;;;;6.09;86.78;100730.53;4984452;28;20288;-73
2023/03/29 02:37:54;;;;;;;4.57;2.93;;;;;;;5.96;86.88;100719.56;4989068;28;20228;-73
2023/03/29 02:40:24;;;;;;;3.30;2.57;;;;;;;5.91;87.56;100722.84;4990308;28;20198;-73
2023/03/29 02:42:54;;;;;;;7.63;3.33;;;;;;;5.97;87.97;100715.19;4983713;28;20251;-73
2023/03/29 02:45:22;;;;;;;5.03;3.07;;;;;;;5.98;86.90;100707.34;4986519;28;20222;-74
2023/03/29 02:47:52;;;;;;;4.27;3.27;;;;;;;6.01;86.33;100700.47;4985161;28;20203;-73
2023/03/29 02:50:19;;;;;;;8.13;2.93;;;;;;;6.04;86.52;100711.97;4993040;28;20578;-73
2023/03/29 02:52:53;;;;;;;4.97;3.00;;;;;;;5.95;86.61;100709.88;4982802;28;20677;-73
2023/03/29 02:55:23;;;;;;;4.10;2.63;;;;;;;6.00;86.63;100710.03;4985791;28;20252;-73
2023/03/29 02:57:49;;;;;;;4.87;3.00;;;;;;;6.01;86.67;100709.25;4990037;28;20669;-73
2023/03/29 03:00:18;;;;;;;6.17;3.20;;;;;;;5.91;86.57;100696.56;4989622;28;20228;-73
2023/03/29 03:02:46;;;;;;;4.47;3.07;;;;;;;5.94;86.46;100699.31;4983668;28;20253;-72
2023/03/29 03:05:13;;;;;;;4.20;2.60;;;;;;;5.94;86.10;100700.19;4986421;28;20222;-74
2023/03/29 03:07:39;;;;;;;4.53;2.87;;;;;;;5.90;86.33;100695.69;4983083;28;20203;-73
2023/03/29 03:10:08;;;;;;;4.30;3.10;;;;;;;5.85;86.58;100691.94;4990369;28;20204;-73
2023/03/29 03:12:36;;;;;;;4.13;2.80;;;;;;;5.75;87.41;100700.34;4986709;28;20262;-73
2023/03/29 03:15:04;;;;;;;4.13;2.80;;;;;;;5.77;87.38;100697.75;4989481;28;20603;-73
2023/03/29 03:17:32;;;;;;;5.00;2.60;;;;;;;5.75;87.71;100687.19;4987938;28;20555;-73
2023/03/29 03:19:58;;;;;;;3.77;2.50;;;;;;;5.77;87.12;100684.63;4990300;28;20620;-73
2023/03/29 03:22:25;;;;;;;5.00;2.90;;;;;;;5.81;86.59;100684.78;4988067;28;20238;-74
2023/03/29 03:24:51;;;;;;;4.30;2.63;;;;;;;5.89;86.89;100683.38;4988869;28;20241;-73
2023/03/29 03:27:18;;;;;;;6.07;2.67;;;;;;;5.94;86.61;100679.16;4988803;28;20209;-73
2023/03/29 03:29:44;;;;;;;4.60;3.00;;;;;;;5.96;86.24;100671.34;4990426;28;20201;-74
2023/03/29 03:32:11;;;;;;;6.50;3.33;;;;;;;5.90;86.57;100674.66;4987361;28;20201;-73
2023/03/29 03:34:37;;;;;;;4.17;2.93;;;;;;;5.88;86.86;100670.13;4986182;28;20200;-73
2023/03/29 03:37:03;;;;;;;4.20;2.53;;;;;;;5.86;86.67;100667.47;4985286;28;20248;-73
2023/03/29 03:39:30;;;;;;;5.13;3.03;;;;;;;5.93;86.57;100655.47;4987873;28;20204;-72
2023/03/29 03:41:57;;;;;;;4.77;3.00;;;;;;;5.96;86.22;100655.56;4991105;28;20214;-73
2023/03/29 03:44:23;;;;;;;5.57;2.90;;;;;;;6.00;86.12;100652.22;4985816;28;20227;-73
2023/03/29 03:46:49;;;;;;;9.70;2.93;;;;;;;5.93;85.72;100665.97;4984877;28;20654;-73
2023/03/29 03:49:16;;;;;;;9.07;3.47;;;;;;;5.88;86.17;100665.78;4985802;28;20205;-74
2023/03/29 03:51:44;;;;;;;6.57;3.03;;;;;;;5.87;86.64;100670.97;4985705;28;20616;-73
2023/03/29 03:54:11;;;;;;;5.47;3.60;;;;;;;5.85;86.43;100668.28;4986862;28;20201;-74
2023/03/29 03:56:37;;;;;;;5.00;3.43;;;;;;;5.84;86.53;100657.72;5042409;23;20257;-76
2023/03/29 03:59:04;;;;;;;10.20;3.43;;;;;;;5.86;85.86;100653.41;5046864;28;20245;-76
2023/03/29 04:01:30;;;;;;;7.63;3.43;;;;;;;5.81;86.01;100658.50;5041811;28;20691;-74
2023/03/29 04:03:56;;;;;;;5.63;3.73;;;;;;;5.85;86.04;100670.03;5043780;28;20284;-74
2023/03/29 04:06:24;;;;;;;9.23;3.53;;;;;;;5.85;86.07;100662.16;5042742;28;20574;-76
2023/03/29 04:08:50;;;;;;;6.87;3.60;;;;;;;5.83;86.05;100656.84;5043543;28;20225;-74
2023/03/29 04:11:16;;;;;;;6.93;3.77;;;;;;;5.88;85.73;100660.53;5037937;28;20231;-74
2023/03/29 04:13:43;;;;;;;7.63;3.07;;;;;;;5.87;85.86;100664.00;5038120;28;20206;-76
2023/03/29 04:16:09;;;;;;;6.50;3.37;;;;;;;5.89;86.11;100656.16;5032806;28;20310;-76
2023/03/29 04:18:35;;;;;;;9.17;5.00;;;;;;;5.98;85.71;100660.03;5042477;28;20586;-75
2023/03/29 04:21:02;;;;;;;6.47;4.20;;;;;;;5.95;85.36;100657.31;5039667;28;20197;-75
2023/03/29 04:23:29;;;;;;;10.30;5.57;;;;;;;5.95;85.60;100649.41;5039249;28;20200;-75
2023/03/29 04:25:56;;;;;;;5.53;3.90;;;;;;;6.00;84.96;100654.84;5038018;28;20215;-75
2023/03/29 04:28:22;;;;;;;6.87;4.40;;;;;;;6.00;85.31;100649.59;5038330;28;20630;-76
2023/03/29 04:30:49;;;;;;;9.17;5.40;;;;;;;5.93;85.86;100655.47;5043629;28;20204;-75
2023/03/29 04:33:16;;;;;;;8.67;4.50;;;;;;;5.90;86.20;100652.72;5034362;28;20192;-76
2023/03/29 04:35:42;;;;;;;7.40;4.07;;;;;;;5.88;86.32;100646.47;5039874;28;20217;-76
2023/03/29 04:38:10;;;;;;;3.97;3.20;;;;;;;5.86;86.62;100643.81;5044590;28;20295;-76
2023/03/29 04:40:37;;;;;;;6.27;3.60;;;;;;;5.86;86.35;100645.53;5043386;28;20197;-76
2023/03/29 04:43:03;;;;;;;7.90;3.60;;;;;;;5.89;86.68;100645.66;5038053;28;20834;-75
2023/03/29 04:45:30;;;;;;;10.13;3.57;;;;;;;6.05;86.26;100644.53;5043155;28;20234;-76
2023/03/29 04:47:58;;;;;;;5.70;3.17;;;;;;;6.12;85.63;100634.25;5045622;28;20631;-75
2023/03/29 04:50:25;;;;;;;5.60;3.20;;;;;;;6.13;84.77;100636.06;5045972;28;20192;-75
2023/03/29 04:52:51;;;;;;;5.17;2.90;;;;;;;6.09;84.83;100636.78;5036455;28;20231;-76
2023/03/29 04:55:18;;;;;;;4.47;2.93;;;;;;;6.12;85.32;100631.63;5041987;28;20220;-76
2023/03/29 04:57:45;;;;;;;5.20;2.87;;;;;;;6.10;85.18;100628.06;5042057;28;20274;-76
2023/03/29 05:00:14;;;;;;;7.57;3.80;;;;;;;6.05;85.52;100634.00;5037973;28;20660;-75
2023/03/29 05:02:43;;;;;;;4.87;3.30;;;;;;;6.01;86.20;100633.00;5038759;28;20203;-75
2023/03/29 05:05:10;;;;;;;5.80;3.47;;;;;;;5.99;86.18;100637.28;5042177;28;20585;-75
2023/03/29 05:07:37;;;;;;;9.53;3.70;;;;;;;6.10;86.31;100635.06;5031763;28;20197;-75
2023/03/29 05:10:05;;;;;;;13.23;4.10;;;;;;;6.17;85.15;100640.56;5044554;28;20632;-75
2023/03/29 05:12:31;;;;;;;9.67;4.13;;;;;;;6.19;84.96;100648.50;5033871;28;20481;-75
2023/03/29 05:14:58;;;;;;;14.27;3.97;;;;;;;6.16;85.18;100651.94;5043216;28;20222;-76
2023/03/29 05:17:26;;;;;;;9.73;3.90;;;;;;;6.08;85.91;100655.13;5039797;28;20300;-76
2023/03/29 05:19:53;;;;;;;10.87;3.90;;;;;;;6.00;85.92;100649.59;5036810;28;20359;-75
2023/03/29 05:22:20;;;;;;;9.47;4.20;;;;;;;5.95;86.36;100654.69;5043606;28;20220;-75
2023/03/29 05:24:47;;;;;;;13.60;4.07;;;;;;;5.95;86.09;100657.31;5038429;28;20220;-75
2023/03/29 05:27:13;;;;;;;9.50;4.27;;;;;;;6.06;86.04;100655.09;5037321;28;20295;-75
2023/03/29 05:29:40;;;;;;;6.13;3.97;;;;;;;6.13;85.75;100648.31;5041563;28;20251;-75
2023/03/29 05:32:06;;;;;;;8.63;4.20;;;;;;;6.15;85.98;100649.25;5039072;28;20199;-75
2023/03/29 05:34:33;;;;;;;8.90;4.23;;;;;;;6.30;85.41;100647.16;5036756;28;20208;-74
2023/03/29 05:37:00;;;;;;;7.17;4.00;;;;;;;6.32;84.92;100640.19;5036192;28;20243;-74
2023/03/29 05:39:26;;;;;;;10.67;4.97;;;;;;;6.46;84.63;100648.59;5038202;28;20198;-74
2023/03/29 05:41:53;;;;;;;10.57;4.33;;;;;;;6.52;84.20;100651.41;5045846;28;20570;-74
2023/03/29 05:44:20;;;;;;;9.07;4.73;;;;;;;6.58;83.99;100643.72;5044068;28;20201;-74
2023/03/29 05:46:47;;;;;;;8.50;4.50;;;;;;;6.68;84.20;100652.81;5045906;28;20209;-74
2023/03/29 05:49:16;;;;;;;6.93;4.20;;;;;;;6.81;83.16;100647.13;5038596;28;20658;-73
2023/03/29 05:51:44;;;;;;;12.83;4.30;;;;;;;6.91;82.83;100647.47;5037119;28;20559;-73
2023/03/29 05:54:11;;;;;;;9.47;4.57;;;;;;;7.00;82.16;100646.84;5037650;28;20262;-73
2023/03/29 05:56:37;;;;;;;7.87;4.40;;;;;;;7.12;81.96;100649.88;5033882;28;20468;-74
2023/03/29 05:59:03;;;;;;;10.07;5.90;;;;;;;7.17;81.11;100660.53;5040924;28;20197;-73
2023/03/29 06:01:31;;;;;;;10.97;4.80;;;;;;;7.23;81.21;100655.50;5039246;28;20202;-74
2023/03/29 06:03:57;;;;;;;6.93;4.80;;;;;;;7.34;81.50;100648.81;5017392;28;21118;-75
2023/03/29 06:06:24;;;;;;;8.57;4.67;;;;;;;7.45;80.97;100654.38;5039711;28;20965;-75
2023/03/29 06:08:50;;;;;;;6.00;3.97;;;;;;;7.52;80.20;100659.88;5028378;28;20219;-74
2023/03/29 06:11:17;;;;;;;7.80;4.33;;;;;;;7.62;80.66;100657.53;5043709;28;20294;-74
2023/03/29 06:13:43;;;;;;;4.73;3.53;;;;;;;7.70;80.48;100659.53;5049407;28;20665;-75
2023/03/29 06:16:10;;;;;;;6.37;4.20;;;;;;;7.78;79.90;100659.75;5046724;28;20256;-74
2023/03/29 06:18:38;;;;;;;6.43;4.03;;;;;;;7.83;79.59;100663.41;5043824;28;20209;-74
2023/03/29 06:21:08;;;;;;;8.47;4.20;;;;;;;7.91;79.11;100668.91;5040115;28;20572;-74
2023/03/29 06:23:35;;;;;;;7.47;4.23;;;;;;;7.98;78.01;100668.22;5047894;28;20199;-74
2023/03/29 06:26:02;;;;;;;9.27;4.53;;;;;;;8.01;77.57;100657.78;5047438;28;20224;-74
2023/03/29 06:28:28;;;;;;;5.63;3.97;;;;;;;8.09;77.83;100659.78;5043299;28;20237;-74
2023/03/29 06:30:55;;;;;;;6.30;4.00;;;;;;;8.30;77.90;100663.84;5047232;28;20214;-73
2023/03/29 06:33:24;;;;;;;6.87;4.40;;;;;;;8.43;78.33;100666.91;5037297;28;20203;-74
2023/03/29 06:35:51;;;;;;;5.37;3.83;;;;;;;8.60;77.83;100669.06;5047397;28;20257;-74
2023/03/29 06:38:19;;;;;;;9.80;4.50;;;;;;;8.66;76.36;100669.22;5049796;28;20204;-74
2023/03/29 06:40:47;;;;;;;5.67;3.83;;;;;;;8.65;75.69;100665.69;5044352;28;20205;-74
2023/03/29 06:43:13;;;;;;;9.50;4.03;;;;;;;8.78;74.45;100675.69;5036841;28;20204;-74
2023/03/29 06:45:39;;;;;;;8.50;4.20;;;;;;;8.69;73.64;100667.56;5048954;28;20726;-75
2023/03/29 06:48:06;;;;;;;7.10;3.93;;;;;;;8.72;73.85;100672.91;5048245;28;20202;-74
2023/03/29 06:50:33;;;;;;;4.60;3.60;;;;;;;8.73;74.15;100665.88;5039763;28;20208;-75
2023/03/29 06:53:00;;;;;;;10.23;4.03;;;;;;;8.79;74.39;100674.84;5039455;28;20207;-74
2023/03/29 06:55:27;;;;;;;7.97;4.63;;;;;;;8.89;74.18;100673.34;5047343;28;20223;-74
2023/03/29 06:57:54;;;;;;;6.73;3.97;;;;;;;9.15;73.95;100668.66;5044524;28;20230;-75
2023/03/29 07:00:26;;;;;;;9.73;4.23;;;;;;;9.33;71.37;100666.47;5037830;28;20203;-75
2023/03/29 07:02:55;;;;;;;6.70;3.73;;;;;;;9.41;71.07;100667.53;5045692;28;20651;-74
2023/03/29 07:05:22;;;;;;;6.37;4.60;;;;;;;9.63;70.68;100657.44;5035674;28;20211;-73
2023/03/29 07:10:37;;;;;;;6.37;3.93;;;;;;;10.03;68.93;100659.16;5042806;28;20283;-73
2023/03/29 07:13:05;;;;;;;4.37;3.50;;;;;;;10.26;68.27;100655.22;5035695;28;20266;-74
2023/03/29 07:15:32;;;;;;;4.87;3.47;;;;;;;10.45;66.74;100661.75;5043756;28;20749;-73
2023/03/29 07:18:00;;;;;;;5.00;3.00;;;;;;;10.66;65.70;100666.53;5036456;28;20279;-73
2023/03/29 07:20:27;;;;;;;7.57;3.80;;;;;;;10.48;65.55;100661.81;5043672;28;20288;-73
2023/03/29 07:22:53;;;;;;;5.43;3.60;;;;;;;10.52;64.93;100671.59;5044468;28;20260;-73
2023/03/29 07:25:22;;;;;;;6.23;3.70;;;;;;;10.52;64.82;100660.13;5043119;28;20228;-74
2023/03/29 07:27:50;;;;;;;5.67;3.50;;;;;;;10.16;65.52;100670.88;5042590;28;20230;-74
2023/03/29 07:30:20;;;;;;;6.30;3.60;;;;;;;10.29;65.74;100680.84;5034121;28;20207;-74
2023/03/29 07:32:46;;;;;;;5.13;3.33;;;;;;;10.41;65.41;100688.16;5040429;28;20622;-75
2023/03/29 07:35:14;;;;;;;4.63;3.53;;;;;;;10.50;65.10;100691.84;5039515;28;20225;-74
2023/03/29 07:37:41;;;;;;;5.20;3.30;;;;;;;10.44;64.80;100686.47;5048190;28;20225;-74
2023/03/29 07:40:15;;;;;;;5.33;3.40;;;;;;;10.53;65.55;100694.56;5038066;28;20208;-73
2023/03/29 07:42:45;;;;;;;5.17;3.30;;;;;;;10.73;63.66;100686.97;5044295;28;20212;-74
2023/03/29 07:45:15;;;;;;;6.57;3.23;;;;;;;10.92;62.99;100691.72;5041412;28;20224;-73
2023/03/29 07:47:43;;;;;;;5.40;3.10;;;;;;;10.82;64.31;100692.44;5045685;28;20190;-72
2023/03/29 07:50:10;;;;;;;4.80;3.33;;;;;;;10.90;63.48;100696.09;5045592;28;20677;-75
2023/03/29 07:52:37;;;;;;;7.13;3.50;;;;;;;10.90;64.42;100690.81;5041424;28;20198;-73
2023/03/29 07:55:08;;;;;;;5.53;3.10;;;;;;;10.78;64.07;100690.56;5041220;28;20200;-74
2023/03/29 07:57:34;;;;;;;4.23;3.30;;;;;;;10.83;64.79;100696.88;5038527;28;20249;-74
2023/03/29 08:00:13;;;;;;;6.60;3.43;;;;;;;10.99;64.61;100695.34;5043148;28;20229;-75
2023/03/29 08:02:48;;;;;;;4.33;3.07;;;;;;;11.04;63.25;100701.63;5031810;28;20277;-74
2023/03/29 08:05:16;;;;;;;6.40;3.63;;;;;;;11.01;63.66;100698.94;5035147;28;20725;-74
2023/03/29 08:07:54;;;;;;;5.17;3.50;;;;;;;11.05;63.56;100691.91;5043650;28;20199;-75
2023/03/29 08:10:21;;;;;;;6.70;3.60;;;;;;;11.10;63.06;100692.88;5040498;28;20590;-75
2023/03/29 08:12:49;;;;;;;5.67;3.47;;;;;;;11.47;62.65;100689.91;5039485;28;20212;-74
2023/03/29 08:15:15;;;;;;;5.40;3.40;;;;;;;11.81;61.74;100690.44;5039897;28;20579;-70
2023/03/29 08:17:42;;;;;;;5.23;3.00;;;;;;;11.81;62.02;100680.72;5040028;28;20236;-71
2023/03/29 08:20:12;;;;;;;4.90;3.27;;;;;;;11.92;61.64;100671.09;5043315;28;20200;-74
2023/03/29 08:22:39;;;;;;;4.07;3.30;;;;;;;11.73;60.63;100669.06;5036985;28;20579;-75
2023/03/29 08:25:06;;;;;;;5.33;3.23;;;;;;;11.80;60.55;100678.03;5041937;28;20205;-74
2023/03/29 08:27:33;;;;;;;4.10;2.93;;;;;;;11.79;59.22;100674.50;5041223;28;20190;-75
2023/03/29 08:29:59;;;;;;;4.83;3.30;;;;;;;11.96;59.28;100671.13;5040910;28;20204;-75
2023/03/29 08:32:25;;;;;;;4.13;3.20;;;;;;;12.35;59.19;100674.25;5038779;28;20205;-74
2023/03/29 08:34:52;;;;;;;4.70;3.10;;;;;;;12.60;57.63;100671.88;5036272;28;20200;-74
2023/03/29 08:37:18;;;;;;;5.43;3.47;;;;;;;12.31;57.69;100669.78;5039589;28;20252;-74
2023/03/29 08:39:45;;;;;;;5.77;3.40;;;;;;;11.94;58.74;100671.13;5036121;28;20679;-74
2023/03/29 08:42:24;;;;;;;4.23;3.27;;;;;;;11.92;59.63;100662.25;5035662;28;20227;-74
2023/03/29 08:44:53;;;;;;;4.47;3.30;;;;;;;11.76;59.76;100674.41;5047039;28;20236;-73
2023/03/29 08:47:31;;;;;;;4.83;3.30;;;;;;;11.72;61.21;100677.00;5046733;28;20194;-77
2023/03/29 08:49:58;;;;;;;5.97;3.53;;;;;;;11.54;60.91;100691.78;5047741;28;20207;-74
2023/03/29 08:52:27;;;;;;;4.53;3.33;;;;;;;11.90;60.18;100687.88;5041658;28;20226;-75
2023/03/29 08:54:56;;;;;;;5.03;3.57;;;;;;;12.25;59.58;100688.31;5042755;28;20209;-74
2023/03/29 08:57:30;;;;;;;6.03;3.23;;;;;;;12.28;59.15;100695.44;5033643;28;20272;-73
2023/03/29 09:00:04;;;;;;;5.23;3.60;;;;;;;12.16;58.63;100696.19;5047390;28;20202;-72
2023/03/29 09:02:34;;;;;;;5.67;3.40;;;;;;;12.35;58.34;100692.84;5063091;28;20675;-74
2023/03/29 09:05:16;;;;;;;4.93;3.43;;;;;;;12.26;58.25;100690.09;5042762;28;20244;-74
2023/03/29 09:07:43;;;;;;;4.37;3.37;;;;;;;12.59;58.41;100678.06;5040098;28;20681;-76
2023/03/29 09:10:15;;;;;;;6.20;3.30;;;;;;;12.89;57.61;100681.00;5038645;28;20206;-77
2023/03/29 09:13:15;;;;;;;5.07;3.10;;;;;;;12.85;56.79;100680.09;5036596;28;20200;-73
2023/03/29 09:16:04;;;;;;;4.63;3.20;;;;;;;12.84;56.64;100688.06;5033666;28;20226;-75
2023/03/29 09:18:50;;;;;;;5.50;3.30;;;;;;;13.07;56.80;100670.50;5048405;28;20341;-75
2023/03/29 09:21:29;;;;;;;5.20;3.47;;;;;;;13.03;55.74;100674.03;5045247;28;20195;-75
2023/03/29 09:23:58;;;;;;;5.37;3.57;;;;;;;12.85;56.68;100676.53;5037813;28;20282;-74
2023/03/29 09:26:40;;;;;;;6.13;3.60;;;;;;;12.76;56.76;100669.34;5041972;28;20242;-75
2023/03/29 09:29:29;;;;;;;4.47;3.53;;;;;;;12.84;56.15;100680.97;5044201;28;20199;-76
2023/03/29 09:31:55;;;;;;;5.87;3.63;;;;;;;13.10;55.36;100674.94;5039029;28;20192;-74
2023/03/29 09:34:29;;;;;;;6.50;3.23;;;;;;;13.54;55.53;100671.72;5041427;28;20613;-74
2023/03/29 09:37:02;;;;;;;3.83;3.00;;;;;;;13.83;53.86;100675.44;5047704;28;20225;-74
2023/03/29 09:39:31;;;;;;;5.13;3.50;;;;;;;14.16;53.40;100673.81;5040199;28;20631;-74
2023/03/29 09:42:03;;;;;;;4.80;3.20;;;;;;;14.26;52.32;100672.94;5038539;28;20199;-75
2023/03/29 09:44:38;;;;;;;7.30;3.03;;;;;;;14.16;53.59;100688.03;5041176;28;20218;-77
2023/03/29 09:47:17;;;;;;;4.53;3.33;;;;;;;14.02;53.73;100680.00;5040896;28;20871;-84
2023/03/29 09:49:48;;;;;;;5.10;3.20;;;;;;;14.22;53.52;100676.50;5041711;28;20207;-82
2023/03/29 09:52:16;;;;;;;4.10;3.03;;;;;;;14.38;51.97;100673.84;5042275;28;20260;-84
2023/03/29 09:54:43;;;;;;;8.77;3.67;;;;;;;14.03;52.91;100672.88;5039848;28;20210;-84
2023/03/29 09:57:15;;;;;;;4.60;3.10;;;;;;;14.23;53.18;100671.16;5056703;22;20229;-68
2023/03/29 09:59:43;;;;;;;4.90;3.23;;;;;;;14.07;52.56;100658.69;5047407;28;20203;-71
2023/03/29 10:02:11;;;;;;;6.20;3.40;;;;;;;13.58;54.30;100666.44;5048884;28;20702;-70
2023/03/29 10:04:41;;;;;;;4.20;3.20;;;;;;;13.67;53.56;100658.53;5048941;28;20225;-70
2023/03/29 10:07:14;;;;;;;5.00;3.13;;;;;;;13.74;53.50;100644.34;5036177;28;20654;-70
2023/03/29 10:09:44;;;;;;;4.67;3.20;;;;;;;14.11;53.83;100641.84;5045284;28;20199;-68
2023/03/29 10:12:12;;;;;;;6.10;3.20;;;;;;;14.44;51.94;100642.84;5044256;28;20210;-70
2023/03/29 10:14:45;;;;;;;7.63;3.03;;;;;;;14.55;51.75;100638.41;5044740;28;20268;-71
2023/03/29 10:17:25;;;;;;;4.90;3.10;;;;;;;14.60;52.27;100634.84;5041927;28;20211;-69
2023/03/29 10:19:56;;;;;;;4.90;3.13;;;;;;;14.69;52.41;100641.97;5039109;28;20221;-70
2023/03/29 10:22:25;;;;;;;14.13;7.83;;;;;;;14.49;52.23;100646.41;5038479;28;20215;-71
2023/03/29 10:24:55;;;;;;;8.20;4.77;;;;;;;14.35;52.41;100638.31;5044838;28;20195;-72
2023/03/29 10:27:34;;;;;;;7.20;4.10;;;;;;;14.17;53.39;100635.63;5038657;28;20637;-69
2023/03/29 10:30:10;;;;;;;13.30;7.70;;;;;;;14.61;53.51;100617.09;5038952;28;20195;-72
2023/03/29 10:32:38;;;;;;;10.23;5.77;;;;;;;14.85;52.77;100611.78;5042636;28;20202;-69
2023/03/29 10:35:13;;;;;;;6.40;3.80;;;;;;;15.34;52.00;100607.25;5042684;28;20194;-70
2023/03/29 10:37:42;;;;;;;4.90;3.63;;;;;;;15.99;49.06;100607.91;5050338;28;20288;-70
2023/03/29 10:40:40;;;;;;;4.73;3.50;;;;;;;16.53;47.07;100612.03;5041838;28;20214;-69
2023/03/29 10:43:15;;;;;;;6.40;3.63;;;;;;;16.76;46.92;100606.53;5039952;28;20195;-70
2023/03/29 10:45:45;;;;;;;5.53;3.63;;;;;;;17.21;46.82;100601.66;5041248;28;20634;-70
2023/03/29 10:48:14;;;;;;;5.53;3.83;;;;;;;17.32;45.66;100596.19;5048563;28;20563;-70
2023/03/29 10:50:41;;;;;;;6.13;3.73;;;;;;;17.06;45.94;100605.38;5039055;28;20206;-69
2023/03/29 10:53:18;;;;;;;5.87;3.07;;;;;;;17.51;45.78;100600.44;5040249;28;20199;-70
2023/03/29 10:55:56;;;;;;;5.60;3.07;;;;;;;17.78;45.40;100596.56;5040017;28;20226;-72
2023/03/29 10:58:46;;;;;;;6.00;3.63;;;;;;;17.85;43.91;100585.75;5040168;28;20655;-70
2023/03/29 11:01:33;;;;;;;7.23;3.80;;;;;;;17.67;44.18;100587.78;5037724;28;20200;-69
2023/03/29 11:04:02;;;;;;;7.43;3.43;;;;;;;17.55;44.25;100588.78;5041571;28;20199;-72
2023/03/29 11:06:41;;;;;;;4.67;3.30;;;;;;;17.97;44.63;100590.06;5044764;28;20656;-69
2023/03/29 11:09:45;;;;;;;5.53;3.20;;;;;;;18.17;44.00;100596.03;5038159;28;20227;-71
2023/03/29 11:12:28;;;;;;;5.97;3.67;;;;;;;17.73;43.82;100593.06;5040768;28;20191;-68
2023/03/29 11:15:14;;;;;;;8.33;3.87;;;;;;;17.49;45.72;100599.56;5036620;28;20202;-69
2023/03/29 11:17:53;;;;;;;4.73;3.30;;;;;;;17.32;46.01;100593.53;5042310;28;20210;-70
2023/03/29 11:20:35;;;;;;;5.97;3.53;;;;;;;16.96;46.64;100586.75;5041057;28;20292;-73
2023/03/29 11:23:34;;;;;;;6.43;3.23;;;;;;;17.32;46.28;100591.72;5038902;28;20199;-68
2023/03/29 11:26:13;;;;;;;5.83;3.50;;;;;;;17.15;47.34;100588.31;5037888;28;20222;-69
2023/03/29 11:28:56;;;;;;;4.90;3.23;;;;;;;17.36;47.18;100589.91;5038638;28;20197;-70
2023/03/29 11:32:00;;;;;;;6.47;3.80;;;;;;;17.72;45.99;100585.94;5040964;28;20203;-66
2023/03/29 11:35:02;;;;;;;6.30;3.63;;;;;;;17.78;46.05;100580.50;5042456;28;20222;-69
2023/03/29 11:37:41;;;;;;;5.40;3.13;;;;;;;17.92;45.52;100573.16;5041657;28;20380;-70
2023/03/29 11:40:31;;;;;;;6.33;3.30;;;;;;;18.26;45.43;100562.84;5035426;28;20244;-67
2023/03/29 11:43:01;;;;;;;4.87;3.43;;;;;;;18.13;45.62;100580.91;5034502;28;20199;-70
2023/03/29 11:45:35;;;;;;;4.30;3.20;;;;;;;18.28;45.43;100576.22;5038952;28;20690;-68
2023/03/29 11:48:06;;;;;;;6.23;3.60;;;;;;;18.17;45.26;100579.06;5041737;28;20197;-68
2023/03/29 11:50:48;;;;;;;4.67;2.90;;;;;;;18.26;45.13;100567.31;5041088;28;20201;-70